<?xml version="1.0" encoding="UTF-8" standalone="no" ?>
<gpx xmlns="http://www.topografix.com/GPX/1/1" xmlns:xsi="http://www.w3.org/2001/XMLSchema-instance" xsi:schemaLocation="http://www.topografix.com/GPX/1/1 http://www.topografix.com/GPX/1/1/gpx.xsd" version="1.1" creator="VisuGPX - https://www.visugpx.com">
  <metadata>
    <name>secteur Saverne - Dabo - Petite Pierre</name>
  </metadata>
  <trk>
    <name><![CDATA[secteur Saverne - Dabo - Petite Pierre_32]]></name>
    <trkseg>
      <trkpt lat="48.73437" lon="7.33949">
        <ele>250.7</ele>
        <time>2020-08-14T14:13:39Z</time>
      </trkpt>
      <trkpt lat="48.73437" lon="7.33949">
        <ele>250.7</ele>
        <time>2020-08-14T14:13:39Z</time>
      </trkpt>
      <trkpt lat="48.73437" lon="7.33949">
        <ele>250.7</ele>
        <time>2020-08-14T14:13:39Z</time>
      </trkpt>
      <trkpt lat="48.73437" lon="7.33949">
        <ele>250.7</ele>
        <time>2020-08-14T14:13:39Z</time>
      </trkpt>
      <trkpt lat="48.73437" lon="7.33949">
        <ele>250.7</ele>
        <time>2020-08-14T14:13:39Z</time>
      </trkpt>
      <trkpt lat="48.73437" lon="7.33949">
        <ele>250.7</ele>
        <time>2020-08-14T14:13:39Z</time>
      </trkpt>
      <trkpt lat="48.73431" lon="7.33939">
        <ele>251.1</ele>
        <time>2020-08-14T14:13:41Z</time>
      </trkpt>
      <trkpt lat="48.73426" lon="7.33928">
        <ele>251.3</ele>
        <time>2020-08-14T14:13:43Z</time>
      </trkpt>
      <trkpt lat="48.73419" lon="7.33918">
        <ele>251.7</ele>
        <time>2020-08-14T14:13:45Z</time>
      </trkpt>
      <trkpt lat="48.73413" lon="7.33907">
        <ele>252.1</ele>
        <time>2020-08-14T14:13:47Z</time>
      </trkpt>
      <trkpt lat="48.73406" lon="7.33897">
        <ele>253</ele>
        <time>2020-08-14T14:13:49Z</time>
      </trkpt>
      <trkpt lat="48.734" lon="7.33885">
        <ele>253.2</ele>
        <time>2020-08-14T14:13:51Z</time>
      </trkpt>
      <trkpt lat="48.73397" lon="7.33873">
        <ele>253.6</ele>
        <time>2020-08-14T14:13:53Z</time>
      </trkpt>
      <trkpt lat="48.73392" lon="7.33861">
        <ele>253.9</ele>
        <time>2020-08-14T14:13:55Z</time>
      </trkpt>
      <trkpt lat="48.73386" lon="7.33852">
        <ele>254.4</ele>
        <time>2020-08-14T14:13:57Z</time>
      </trkpt>
      <trkpt lat="48.7338" lon="7.33842">
        <ele>255.4</ele>
        <time>2020-08-14T14:13:59Z</time>
      </trkpt>
      <trkpt lat="48.73375" lon="7.33832">
        <ele>257</ele>
        <time>2020-08-14T14:14:01Z</time>
      </trkpt>
      <trkpt lat="48.73369" lon="7.33822">
        <ele>258</ele>
        <time>2020-08-14T14:14:03Z</time>
      </trkpt>
      <trkpt lat="48.73364" lon="7.33812">
        <ele>258.6</ele>
        <time>2020-08-14T14:14:05Z</time>
      </trkpt>
      <trkpt lat="48.73361" lon="7.33799">
        <ele>258.6</ele>
        <time>2020-08-14T14:14:07Z</time>
      </trkpt>
      <trkpt lat="48.73358" lon="7.33788">
        <ele>259.2</ele>
        <time>2020-08-14T14:14:09Z</time>
      </trkpt>
      <trkpt lat="48.73355" lon="7.33778">
        <ele>259.7</ele>
        <time>2020-08-14T14:14:11Z</time>
      </trkpt>
      <trkpt lat="48.73353" lon="7.33767">
        <ele>260.4</ele>
        <time>2020-08-14T14:14:13Z</time>
      </trkpt>
      <trkpt lat="48.73353" lon="7.33753">
        <ele>260.1</ele>
        <time>2020-08-14T14:14:15Z</time>
      </trkpt>
      <trkpt lat="48.73354" lon="7.33739">
        <ele>260.4</ele>
        <time>2020-08-14T14:14:17Z</time>
      </trkpt>
      <trkpt lat="48.73357" lon="7.33728">
        <ele>259.4</ele>
        <time>2020-08-14T14:14:19Z</time>
      </trkpt>
      <trkpt lat="48.7336" lon="7.33717">
        <ele>259.6</ele>
        <time>2020-08-14T14:14:21Z</time>
      </trkpt>
      <trkpt lat="48.73363" lon="7.33706">
        <ele>259.9</ele>
        <time>2020-08-14T14:14:23Z</time>
      </trkpt>
      <trkpt lat="48.73365" lon="7.33693">
        <ele>258.2</ele>
        <time>2020-08-14T14:14:25Z</time>
      </trkpt>
      <trkpt lat="48.73368" lon="7.33677">
        <ele>259.5</ele>
        <time>2020-08-14T14:14:28Z</time>
      </trkpt>
      <trkpt lat="48.7337" lon="7.33667">
        <ele>260.5</ele>
        <time>2020-08-14T14:14:30Z</time>
      </trkpt>
      <trkpt lat="48.73371" lon="7.33657">
        <ele>262.2</ele>
        <time>2020-08-14T14:14:32Z</time>
      </trkpt>
      <trkpt lat="48.73372" lon="7.33647">
        <ele>263.8</ele>
        <time>2020-08-14T14:14:34Z</time>
      </trkpt>
      <trkpt lat="48.73373" lon="7.33636">
        <ele>265.2</ele>
        <time>2020-08-14T14:14:36Z</time>
      </trkpt>
      <trkpt lat="48.73375" lon="7.33624">
        <ele>266.5</ele>
        <time>2020-08-14T14:14:38Z</time>
      </trkpt>
      <trkpt lat="48.73377" lon="7.33612">
        <ele>267.9</ele>
        <time>2020-08-14T14:14:40Z</time>
      </trkpt>
      <trkpt lat="48.73379" lon="7.33599">
        <ele>268.8</ele>
        <time>2020-08-14T14:14:42Z</time>
      </trkpt>
      <trkpt lat="48.73381" lon="7.33586">
        <ele>269.1</ele>
        <time>2020-08-14T14:14:44Z</time>
      </trkpt>
      <trkpt lat="48.73383" lon="7.33574">
        <ele>271.4</ele>
        <time>2020-08-14T14:14:46Z</time>
      </trkpt>
      <trkpt lat="48.73384" lon="7.33562">
        <ele>272.2</ele>
        <time>2020-08-14T14:14:48Z</time>
      </trkpt>
      <trkpt lat="48.73386" lon="7.33551">
        <ele>272.2</ele>
        <time>2020-08-14T14:14:50Z</time>
      </trkpt>
      <trkpt lat="48.73388" lon="7.3354">
        <ele>273.1</ele>
        <time>2020-08-14T14:14:52Z</time>
      </trkpt>
      <trkpt lat="48.7339" lon="7.33529">
        <ele>273.1</ele>
        <time>2020-08-14T14:14:54Z</time>
      </trkpt>
      <trkpt lat="48.73391" lon="7.33516">
        <ele>274</ele>
        <time>2020-08-14T14:14:56Z</time>
      </trkpt>
      <trkpt lat="48.73393" lon="7.33505">
        <ele>274.2</ele>
        <time>2020-08-14T14:14:58Z</time>
      </trkpt>
      <trkpt lat="48.73395" lon="7.33495">
        <ele>274.7</ele>
        <time>2020-08-14T14:15:00Z</time>
      </trkpt>
      <trkpt lat="48.73395" lon="7.33484">
        <ele>275.3</ele>
        <time>2020-08-14T14:15:02Z</time>
      </trkpt>
      <trkpt lat="48.73396" lon="7.33471">
        <ele>275.6</ele>
        <time>2020-08-14T14:15:04Z</time>
      </trkpt>
      <trkpt lat="48.73396" lon="7.33458">
        <ele>275.7</ele>
        <time>2020-08-14T14:15:06Z</time>
      </trkpt>
      <trkpt lat="48.73397" lon="7.33444">
        <ele>275.9</ele>
        <time>2020-08-14T14:15:08Z</time>
      </trkpt>
      <trkpt lat="48.73399" lon="7.33431">
        <ele>275.9</ele>
        <time>2020-08-14T14:15:10Z</time>
      </trkpt>
      <trkpt lat="48.73402" lon="7.33419">
        <ele>276.4</ele>
        <time>2020-08-14T14:15:12Z</time>
      </trkpt>
      <trkpt lat="48.73404" lon="7.33406">
        <ele>277.1</ele>
        <time>2020-08-14T14:15:14Z</time>
      </trkpt>
      <trkpt lat="48.73405" lon="7.33393">
        <ele>273.7</ele>
        <time>2020-08-14T14:15:16Z</time>
      </trkpt>
      <trkpt lat="48.73406" lon="7.33381">
        <ele>275.2</ele>
        <time>2020-08-14T14:15:18Z</time>
      </trkpt>
      <trkpt lat="48.73407" lon="7.33369">
        <ele>277.5</ele>
        <time>2020-08-14T14:15:20Z</time>
      </trkpt>
      <trkpt lat="48.73408" lon="7.33358">
        <ele>278.5</ele>
        <time>2020-08-14T14:15:22Z</time>
      </trkpt>
      <trkpt lat="48.73408" lon="7.33347">
        <ele>280.6</ele>
        <time>2020-08-14T14:15:24Z</time>
      </trkpt>
      <trkpt lat="48.73408" lon="7.33336">
        <ele>282</ele>
        <time>2020-08-14T14:15:26Z</time>
      </trkpt>
      <trkpt lat="48.73409" lon="7.33324">
        <ele>283.6</ele>
        <time>2020-08-14T14:15:28Z</time>
      </trkpt>
      <trkpt lat="48.73408" lon="7.3331">
        <ele>284.2</ele>
        <time>2020-08-14T14:15:30Z</time>
      </trkpt>
      <trkpt lat="48.73409" lon="7.33295">
        <ele>284.1</ele>
        <time>2020-08-14T14:15:32Z</time>
      </trkpt>
      <trkpt lat="48.73409" lon="7.33281">
        <ele>284.6</ele>
        <time>2020-08-14T14:15:34Z</time>
      </trkpt>
      <trkpt lat="48.73408" lon="7.33266">
        <ele>285.1</ele>
        <time>2020-08-14T14:15:36Z</time>
      </trkpt>
      <trkpt lat="48.73406" lon="7.3325">
        <ele>286</ele>
        <time>2020-08-14T14:15:38Z</time>
      </trkpt>
      <trkpt lat="48.73405" lon="7.33235">
        <ele>287</ele>
        <time>2020-08-14T14:15:40Z</time>
      </trkpt>
      <trkpt lat="48.73403" lon="7.33221">
        <ele>287.7</ele>
        <time>2020-08-14T14:15:42Z</time>
      </trkpt>
      <trkpt lat="48.73402" lon="7.33204">
        <ele>287.7</ele>
        <time>2020-08-14T14:15:44Z</time>
      </trkpt>
      <trkpt lat="48.73399" lon="7.33182">
        <ele>288.5</ele>
        <time>2020-08-14T14:15:47Z</time>
      </trkpt>
      <trkpt lat="48.73397" lon="7.33166">
        <ele>288.8</ele>
        <time>2020-08-14T14:15:49Z</time>
      </trkpt>
      <trkpt lat="48.73395" lon="7.3315">
        <ele>288.5</ele>
        <time>2020-08-14T14:15:51Z</time>
      </trkpt>
      <trkpt lat="48.73392" lon="7.33134">
        <ele>288.7</ele>
        <time>2020-08-14T14:15:53Z</time>
      </trkpt>
      <trkpt lat="48.73392" lon="7.33122">
        <ele>287.2</ele>
        <time>2020-08-14T14:15:55Z</time>
      </trkpt>
      <trkpt lat="48.7339" lon="7.33107">
        <ele>287.3</ele>
        <time>2020-08-14T14:15:57Z</time>
      </trkpt>
      <trkpt lat="48.73387" lon="7.33092">
        <ele>288</ele>
        <time>2020-08-14T14:15:59Z</time>
      </trkpt>
      <trkpt lat="48.73384" lon="7.33078">
        <ele>287.4</ele>
        <time>2020-08-14T14:16:01Z</time>
      </trkpt>
      <trkpt lat="48.73382" lon="7.33062">
        <ele>282.8</ele>
        <time>2020-08-14T14:16:03Z</time>
      </trkpt>
      <trkpt lat="48.73379" lon="7.33048">
        <ele>280.3</ele>
        <time>2020-08-14T14:16:05Z</time>
      </trkpt>
      <trkpt lat="48.73375" lon="7.33032">
        <ele>280.9</ele>
        <time>2020-08-14T14:16:07Z</time>
      </trkpt>
      <trkpt lat="48.73371" lon="7.33016">
        <ele>282.5</ele>
        <time>2020-08-14T14:16:09Z</time>
      </trkpt>
      <trkpt lat="48.73365" lon="7.33001">
        <ele>284.1</ele>
        <time>2020-08-14T14:16:11Z</time>
      </trkpt>
      <trkpt lat="48.73362" lon="7.32986">
        <ele>285.6</ele>
        <time>2020-08-14T14:16:13Z</time>
      </trkpt>
      <trkpt lat="48.73357" lon="7.32971">
        <ele>286.7</ele>
        <time>2020-08-14T14:16:15Z</time>
      </trkpt>
      <trkpt lat="48.73351" lon="7.32958">
        <ele>287.4</ele>
        <time>2020-08-14T14:16:17Z</time>
      </trkpt>
      <trkpt lat="48.73344" lon="7.32942">
        <ele>288.1</ele>
        <time>2020-08-14T14:16:19Z</time>
      </trkpt>
      <trkpt lat="48.73336" lon="7.32926">
        <ele>289.4</ele>
        <time>2020-08-14T14:16:21Z</time>
      </trkpt>
      <trkpt lat="48.7333" lon="7.32912">
        <ele>290.3</ele>
        <time>2020-08-14T14:16:23Z</time>
      </trkpt>
      <trkpt lat="48.73323" lon="7.32899">
        <ele>291.2</ele>
        <time>2020-08-14T14:16:25Z</time>
      </trkpt>
      <trkpt lat="48.73317" lon="7.32883">
        <ele>291.9</ele>
        <time>2020-08-14T14:16:27Z</time>
      </trkpt>
      <trkpt lat="48.73313" lon="7.32867">
        <ele>292.2</ele>
        <time>2020-08-14T14:16:29Z</time>
      </trkpt>
      <trkpt lat="48.73307" lon="7.3285">
        <ele>292.2</ele>
        <time>2020-08-14T14:16:31Z</time>
      </trkpt>
      <trkpt lat="48.73297" lon="7.32839">
        <ele>292.7</ele>
        <time>2020-08-14T14:16:33Z</time>
      </trkpt>
      <trkpt lat="48.73285" lon="7.32832">
        <ele>293.1</ele>
        <time>2020-08-14T14:16:35Z</time>
      </trkpt>
      <trkpt lat="48.73273" lon="7.32825">
        <ele>293.2</ele>
        <time>2020-08-14T14:16:37Z</time>
      </trkpt>
      <trkpt lat="48.73263" lon="7.3282">
        <ele>291.5</ele>
        <time>2020-08-14T14:16:39Z</time>
      </trkpt>
      <trkpt lat="48.73253" lon="7.32812">
        <ele>290.7</ele>
        <time>2020-08-14T14:16:41Z</time>
      </trkpt>
      <trkpt lat="48.73243" lon="7.32803">
        <ele>291.5</ele>
        <time>2020-08-14T14:16:43Z</time>
      </trkpt>
      <trkpt lat="48.73232" lon="7.32794">
        <ele>291.7</ele>
        <time>2020-08-14T14:16:45Z</time>
      </trkpt>
      <trkpt lat="48.73222" lon="7.32783">
        <ele>292</ele>
        <time>2020-08-14T14:16:47Z</time>
      </trkpt>
      <trkpt lat="48.73213" lon="7.32772">
        <ele>292.5</ele>
        <time>2020-08-14T14:16:49Z</time>
      </trkpt>
      <trkpt lat="48.732" lon="7.32751">
        <ele>293.3</ele>
        <time>2020-08-14T14:16:52Z</time>
      </trkpt>
      <trkpt lat="48.73193" lon="7.32737">
        <ele>293.8</ele>
        <time>2020-08-14T14:16:54Z</time>
      </trkpt>
      <trkpt lat="48.73186" lon="7.32723">
        <ele>293.9</ele>
        <time>2020-08-14T14:16:56Z</time>
      </trkpt>
      <trkpt lat="48.73181" lon="7.32707">
        <ele>293.9</ele>
        <time>2020-08-14T14:16:58Z</time>
      </trkpt>
      <trkpt lat="48.73176" lon="7.3269">
        <ele>293.8</ele>
        <time>2020-08-14T14:17:00Z</time>
      </trkpt>
      <trkpt lat="48.73171" lon="7.32673">
        <ele>293.8</ele>
        <time>2020-08-14T14:17:02Z</time>
      </trkpt>
      <trkpt lat="48.73166" lon="7.32656">
        <ele>293.5</ele>
        <time>2020-08-14T14:17:04Z</time>
      </trkpt>
      <trkpt lat="48.73161" lon="7.32639">
        <ele>293.3</ele>
        <time>2020-08-14T14:17:06Z</time>
      </trkpt>
      <trkpt lat="48.73154" lon="7.32611">
        <ele>291.5</ele>
        <time>2020-08-14T14:17:09Z</time>
      </trkpt>
      <trkpt lat="48.7315" lon="7.32596">
        <ele>290.4</ele>
        <time>2020-08-14T14:17:11Z</time>
      </trkpt>
      <trkpt lat="48.73145" lon="7.3258">
        <ele>289.4</ele>
        <time>2020-08-14T14:17:13Z</time>
      </trkpt>
      <trkpt lat="48.73141" lon="7.32563">
        <ele>288.1</ele>
        <time>2020-08-14T14:17:15Z</time>
      </trkpt>
      <trkpt lat="48.73136" lon="7.32547">
        <ele>287.6</ele>
        <time>2020-08-14T14:17:17Z</time>
      </trkpt>
      <trkpt lat="48.7313" lon="7.32531">
        <ele>287.8</ele>
        <time>2020-08-14T14:17:19Z</time>
      </trkpt>
      <trkpt lat="48.73123" lon="7.32515">
        <ele>288.1</ele>
        <time>2020-08-14T14:17:21Z</time>
      </trkpt>
      <trkpt lat="48.73114" lon="7.32491">
        <ele>288</ele>
        <time>2020-08-14T14:17:24Z</time>
      </trkpt>
      <trkpt lat="48.73106" lon="7.32479">
        <ele>287.4</ele>
        <time>2020-08-14T14:17:26Z</time>
      </trkpt>
      <trkpt lat="48.73096" lon="7.32472">
        <ele>287.1</ele>
        <time>2020-08-14T14:17:28Z</time>
      </trkpt>
      <trkpt lat="48.73085" lon="7.3247">
        <ele>287.5</ele>
        <time>2020-08-14T14:17:30Z</time>
      </trkpt>
      <trkpt lat="48.73073" lon="7.32471">
        <ele>287.6</ele>
        <time>2020-08-14T14:17:32Z</time>
      </trkpt>
      <trkpt lat="48.73061" lon="7.32474">
        <ele>287.8</ele>
        <time>2020-08-14T14:17:34Z</time>
      </trkpt>
      <trkpt lat="48.7305" lon="7.32478">
        <ele>288.1</ele>
        <time>2020-08-14T14:17:36Z</time>
      </trkpt>
      <trkpt lat="48.73035" lon="7.3249">
        <ele>288.9</ele>
        <time>2020-08-14T14:17:39Z</time>
      </trkpt>
      <trkpt lat="48.73026" lon="7.32498">
        <ele>289.8</ele>
        <time>2020-08-14T14:17:41Z</time>
      </trkpt>
      <trkpt lat="48.73017" lon="7.32504">
        <ele>291.3</ele>
        <time>2020-08-14T14:17:43Z</time>
      </trkpt>
      <trkpt lat="48.73002" lon="7.32518">
        <ele>292.6</ele>
        <time>2020-08-14T14:17:46Z</time>
      </trkpt>
      <trkpt lat="48.7299" lon="7.32531">
        <ele>293</ele>
        <time>2020-08-14T14:17:48Z</time>
      </trkpt>
      <trkpt lat="48.72982" lon="7.32545">
        <ele>293.6</ele>
        <time>2020-08-14T14:17:50Z</time>
      </trkpt>
      <trkpt lat="48.72974" lon="7.3256">
        <ele>293.9</ele>
        <time>2020-08-14T14:17:52Z</time>
      </trkpt>
      <trkpt lat="48.7296" lon="7.3258">
        <ele>293.8</ele>
        <time>2020-08-14T14:17:55Z</time>
      </trkpt>
      <trkpt lat="48.7295" lon="7.32593">
        <ele>293.6</ele>
        <time>2020-08-14T14:17:57Z</time>
      </trkpt>
      <trkpt lat="48.72943" lon="7.32608">
        <ele>293.7</ele>
        <time>2020-08-14T14:17:59Z</time>
      </trkpt>
      <trkpt lat="48.72936" lon="7.32626">
        <ele>293.1</ele>
        <time>2020-08-14T14:18:01Z</time>
      </trkpt>
      <trkpt lat="48.72932" lon="7.3264">
        <ele>292.9</ele>
        <time>2020-08-14T14:18:03Z</time>
      </trkpt>
      <trkpt lat="48.72929" lon="7.32657">
        <ele>292.6</ele>
        <time>2020-08-14T14:18:05Z</time>
      </trkpt>
      <trkpt lat="48.72924" lon="7.32675">
        <ele>292.1</ele>
        <time>2020-08-14T14:18:07Z</time>
      </trkpt>
      <trkpt lat="48.72921" lon="7.32694">
        <ele>292.3</ele>
        <time>2020-08-14T14:18:09Z</time>
      </trkpt>
      <trkpt lat="48.72914" lon="7.32707">
        <ele>292.5</ele>
        <time>2020-08-14T14:18:11Z</time>
      </trkpt>
      <trkpt lat="48.72904" lon="7.32714">
        <ele>293.1</ele>
        <time>2020-08-14T14:18:13Z</time>
      </trkpt>
      <trkpt lat="48.72893" lon="7.32714">
        <ele>293</ele>
        <time>2020-08-14T14:18:15Z</time>
      </trkpt>
      <trkpt lat="48.72882" lon="7.32709">
        <ele>293.1</ele>
        <time>2020-08-14T14:18:17Z</time>
      </trkpt>
      <trkpt lat="48.72871" lon="7.32702">
        <ele>293.6</ele>
        <time>2020-08-14T14:18:19Z</time>
      </trkpt>
      <trkpt lat="48.72863" lon="7.32693">
        <ele>293.5</ele>
        <time>2020-08-14T14:18:21Z</time>
      </trkpt>
      <trkpt lat="48.72854" lon="7.32681">
        <ele>293.5</ele>
        <time>2020-08-14T14:18:23Z</time>
      </trkpt>
      <trkpt lat="48.72846" lon="7.32668">
        <ele>293.7</ele>
        <time>2020-08-14T14:18:25Z</time>
      </trkpt>
      <trkpt lat="48.72839" lon="7.32651">
        <ele>293</ele>
        <time>2020-08-14T14:18:27Z</time>
      </trkpt>
      <trkpt lat="48.72832" lon="7.32635">
        <ele>292.6</ele>
        <time>2020-08-14T14:18:29Z</time>
      </trkpt>
      <trkpt lat="48.72828" lon="7.32613">
        <ele>291.3</ele>
        <time>2020-08-14T14:18:32Z</time>
      </trkpt>
      <trkpt lat="48.72825" lon="7.32597">
        <ele>290.8</ele>
        <time>2020-08-14T14:18:34Z</time>
      </trkpt>
      <trkpt lat="48.72822" lon="7.32579">
        <ele>290.1</ele>
        <time>2020-08-14T14:18:36Z</time>
      </trkpt>
      <trkpt lat="48.72816" lon="7.32557">
        <ele>289.2</ele>
        <time>2020-08-14T14:18:38Z</time>
      </trkpt>
      <trkpt lat="48.72812" lon="7.32536">
        <ele>289.2</ele>
        <time>2020-08-14T14:18:40Z</time>
      </trkpt>
      <trkpt lat="48.72806" lon="7.32515">
        <ele>289.7</ele>
        <time>2020-08-14T14:18:42Z</time>
      </trkpt>
      <trkpt lat="48.72802" lon="7.32495">
        <ele>290.4</ele>
        <time>2020-08-14T14:18:44Z</time>
      </trkpt>
      <trkpt lat="48.72796" lon="7.32472">
        <ele>291.9</ele>
        <time>2020-08-14T14:18:46Z</time>
      </trkpt>
      <trkpt lat="48.7279" lon="7.32448">
        <ele>293.7</ele>
        <time>2020-08-14T14:18:48Z</time>
      </trkpt>
      <trkpt lat="48.72783" lon="7.32414">
        <ele>294.3</ele>
        <time>2020-08-14T14:18:51Z</time>
      </trkpt>
      <trkpt lat="48.72774" lon="7.32378">
        <ele>294.9</ele>
        <time>2020-08-14T14:18:54Z</time>
      </trkpt>
      <trkpt lat="48.72769" lon="7.32354">
        <ele>294.9</ele>
        <time>2020-08-14T14:18:56Z</time>
      </trkpt>
      <trkpt lat="48.72763" lon="7.32317">
        <ele>295.3</ele>
        <time>2020-08-14T14:18:59Z</time>
      </trkpt>
      <trkpt lat="48.72757" lon="7.32295">
        <ele>295.7</ele>
        <time>2020-08-14T14:19:01Z</time>
      </trkpt>
      <trkpt lat="48.72751" lon="7.32272">
        <ele>295.7</ele>
        <time>2020-08-14T14:19:03Z</time>
      </trkpt>
      <trkpt lat="48.72746" lon="7.3225">
        <ele>296</ele>
        <time>2020-08-14T14:19:05Z</time>
      </trkpt>
      <trkpt lat="48.72739" lon="7.32229">
        <ele>297.1</ele>
        <time>2020-08-14T14:19:07Z</time>
      </trkpt>
      <trkpt lat="48.72732" lon="7.32208">
        <ele>297.6</ele>
        <time>2020-08-14T14:19:09Z</time>
      </trkpt>
      <trkpt lat="48.72724" lon="7.32187">
        <ele>297.8</ele>
        <time>2020-08-14T14:19:11Z</time>
      </trkpt>
      <trkpt lat="48.72713" lon="7.32154">
        <ele>297.7</ele>
        <time>2020-08-14T14:19:14Z</time>
      </trkpt>
      <trkpt lat="48.72706" lon="7.32133">
        <ele>297.1</ele>
        <time>2020-08-14T14:19:16Z</time>
      </trkpt>
      <trkpt lat="48.72698" lon="7.32112">
        <ele>296</ele>
        <time>2020-08-14T14:19:18Z</time>
      </trkpt>
      <trkpt lat="48.7269" lon="7.32092">
        <ele>295.3</ele>
        <time>2020-08-14T14:19:20Z</time>
      </trkpt>
      <trkpt lat="48.72678" lon="7.32061">
        <ele>294.4</ele>
        <time>2020-08-14T14:19:23Z</time>
      </trkpt>
      <trkpt lat="48.72665" lon="7.32029">
        <ele>294.4</ele>
        <time>2020-08-14T14:19:26Z</time>
      </trkpt>
      <trkpt lat="48.72655" lon="7.32011">
        <ele>294.2</ele>
        <time>2020-08-14T14:19:28Z</time>
      </trkpt>
      <trkpt lat="48.72637" lon="7.31988">
        <ele>293.9</ele>
        <time>2020-08-14T14:19:31Z</time>
      </trkpt>
      <trkpt lat="48.72625" lon="7.31974">
        <ele>293.7</ele>
        <time>2020-08-14T14:19:33Z</time>
      </trkpt>
      <trkpt lat="48.72612" lon="7.31959">
        <ele>293.7</ele>
        <time>2020-08-14T14:19:35Z</time>
      </trkpt>
      <trkpt lat="48.72598" lon="7.31947">
        <ele>293.5</ele>
        <time>2020-08-14T14:19:37Z</time>
      </trkpt>
      <trkpt lat="48.72577" lon="7.31929">
        <ele>293.6</ele>
        <time>2020-08-14T14:19:40Z</time>
      </trkpt>
      <trkpt lat="48.72562" lon="7.31921">
        <ele>293.4</ele>
        <time>2020-08-14T14:19:42Z</time>
      </trkpt>
      <trkpt lat="48.72548" lon="7.31914">
        <ele>293.3</ele>
        <time>2020-08-14T14:19:44Z</time>
      </trkpt>
      <trkpt lat="48.7253" lon="7.31909">
        <ele>293.8</ele>
        <time>2020-08-14T14:19:46Z</time>
      </trkpt>
      <trkpt lat="48.72515" lon="7.31899">
        <ele>294.3</ele>
        <time>2020-08-14T14:19:48Z</time>
      </trkpt>
      <trkpt lat="48.72499" lon="7.31887">
        <ele>294.5</ele>
        <time>2020-08-14T14:19:50Z</time>
      </trkpt>
      <trkpt lat="48.72481" lon="7.31878">
        <ele>294.5</ele>
        <time>2020-08-14T14:19:52Z</time>
      </trkpt>
      <trkpt lat="48.7246" lon="7.31874">
        <ele>293.2</ele>
        <time>2020-08-14T14:19:55Z</time>
      </trkpt>
      <trkpt lat="48.72438" lon="7.31861">
        <ele>292.5</ele>
        <time>2020-08-14T14:19:58Z</time>
      </trkpt>
      <trkpt lat="48.72417" lon="7.31844">
        <ele>292.7</ele>
        <time>2020-08-14T14:20:01Z</time>
      </trkpt>
      <trkpt lat="48.72406" lon="7.3183">
        <ele>291.9</ele>
        <time>2020-08-14T14:20:03Z</time>
      </trkpt>
      <trkpt lat="48.72397" lon="7.31816">
        <ele>291.3</ele>
        <time>2020-08-14T14:20:05Z</time>
      </trkpt>
      <trkpt lat="48.72383" lon="7.31791">
        <ele>290.3</ele>
        <time>2020-08-14T14:20:08Z</time>
      </trkpt>
      <trkpt lat="48.72374" lon="7.31772">
        <ele>290.4</ele>
        <time>2020-08-14T14:20:10Z</time>
      </trkpt>
      <trkpt lat="48.72366" lon="7.31744">
        <ele>289.7</ele>
        <time>2020-08-14T14:20:13Z</time>
      </trkpt>
      <trkpt lat="48.72361" lon="7.31728">
        <ele>289.6</ele>
        <time>2020-08-14T14:20:15Z</time>
      </trkpt>
      <trkpt lat="48.72357" lon="7.31712">
        <ele>289.3</ele>
        <time>2020-08-14T14:20:17Z</time>
      </trkpt>
      <trkpt lat="48.72351" lon="7.31686">
        <ele>289</ele>
        <time>2020-08-14T14:20:20Z</time>
      </trkpt>
      <trkpt lat="48.72347" lon="7.31667">
        <ele>289.3</ele>
        <time>2020-08-14T14:20:22Z</time>
      </trkpt>
      <trkpt lat="48.72341" lon="7.31641">
        <ele>289.3</ele>
        <time>2020-08-14T14:20:25Z</time>
      </trkpt>
      <trkpt lat="48.72338" lon="7.31624">
        <ele>289.6</ele>
        <time>2020-08-14T14:20:27Z</time>
      </trkpt>
      <trkpt lat="48.72334" lon="7.31607">
        <ele>290.5</ele>
        <time>2020-08-14T14:20:29Z</time>
      </trkpt>
      <trkpt lat="48.72331" lon="7.3159">
        <ele>290.5</ele>
        <time>2020-08-14T14:20:31Z</time>
      </trkpt>
      <trkpt lat="48.72328" lon="7.31573">
        <ele>291</ele>
        <time>2020-08-14T14:20:33Z</time>
      </trkpt>
      <trkpt lat="48.72326" lon="7.31556">
        <ele>290.8</ele>
        <time>2020-08-14T14:20:35Z</time>
      </trkpt>
      <trkpt lat="48.72323" lon="7.31539">
        <ele>290.7</ele>
        <time>2020-08-14T14:20:37Z</time>
      </trkpt>
      <trkpt lat="48.7232" lon="7.31522">
        <ele>291.1</ele>
        <time>2020-08-14T14:20:39Z</time>
      </trkpt>
      <trkpt lat="48.72317" lon="7.31506">
        <ele>291.3</ele>
        <time>2020-08-14T14:20:41Z</time>
      </trkpt>
      <trkpt lat="48.72312" lon="7.3149">
        <ele>291.8</ele>
        <time>2020-08-14T14:20:43Z</time>
      </trkpt>
      <trkpt lat="48.72308" lon="7.31473">
        <ele>292.6</ele>
        <time>2020-08-14T14:20:45Z</time>
      </trkpt>
      <trkpt lat="48.72304" lon="7.31455">
        <ele>293.3</ele>
        <time>2020-08-14T14:20:47Z</time>
      </trkpt>
      <trkpt lat="48.723" lon="7.31439">
        <ele>293.6</ele>
        <time>2020-08-14T14:20:49Z</time>
      </trkpt>
      <trkpt lat="48.72295" lon="7.31422">
        <ele>294</ele>
        <time>2020-08-14T14:20:51Z</time>
      </trkpt>
      <trkpt lat="48.72288" lon="7.31397">
        <ele>293</ele>
        <time>2020-08-14T14:20:53Z</time>
      </trkpt>
      <trkpt lat="48.72286" lon="7.31388">
        <ele>292.8</ele>
        <time>2020-08-14T14:20:54Z</time>
      </trkpt>
      <trkpt lat="48.72278" lon="7.31362">
        <ele>292.9</ele>
        <time>2020-08-14T14:20:57Z</time>
      </trkpt>
      <trkpt lat="48.72274" lon="7.31339">
        <ele>293.4</ele>
        <time>2020-08-14T14:20:59Z</time>
      </trkpt>
      <trkpt lat="48.7227" lon="7.31318">
        <ele>293.3</ele>
        <time>2020-08-14T14:21:01Z</time>
      </trkpt>
      <trkpt lat="48.72265" lon="7.31295">
        <ele>293.9</ele>
        <time>2020-08-14T14:21:03Z</time>
      </trkpt>
      <trkpt lat="48.72263" lon="7.31273">
        <ele>295</ele>
        <time>2020-08-14T14:21:05Z</time>
      </trkpt>
      <trkpt lat="48.72261" lon="7.3125">
        <ele>297.1</ele>
        <time>2020-08-14T14:21:07Z</time>
      </trkpt>
      <trkpt lat="48.72261" lon="7.31213">
        <ele>299.7</ele>
        <time>2020-08-14T14:21:10Z</time>
      </trkpt>
      <trkpt lat="48.72263" lon="7.31191">
        <ele>300.8</ele>
        <time>2020-08-14T14:21:12Z</time>
      </trkpt>
      <trkpt lat="48.72269" lon="7.31159">
        <ele>301.6</ele>
        <time>2020-08-14T14:21:15Z</time>
      </trkpt>
      <trkpt lat="48.72276" lon="7.31137">
        <ele>302</ele>
        <time>2020-08-14T14:21:17Z</time>
      </trkpt>
      <trkpt lat="48.72285" lon="7.31117">
        <ele>301.1</ele>
        <time>2020-08-14T14:21:19Z</time>
      </trkpt>
      <trkpt lat="48.72294" lon="7.311">
        <ele>300.8</ele>
        <time>2020-08-14T14:21:21Z</time>
      </trkpt>
      <trkpt lat="48.72304" lon="7.31087">
        <ele>300.5</ele>
        <time>2020-08-14T14:21:23Z</time>
      </trkpt>
      <trkpt lat="48.72315" lon="7.3108">
        <ele>300</ele>
        <time>2020-08-14T14:21:25Z</time>
      </trkpt>
      <trkpt lat="48.72328" lon="7.31079">
        <ele>299.1</ele>
        <time>2020-08-14T14:21:27Z</time>
      </trkpt>
      <trkpt lat="48.72346" lon="7.31082">
        <ele>297.4</ele>
        <time>2020-08-14T14:21:30Z</time>
      </trkpt>
      <trkpt lat="48.72358" lon="7.31087">
        <ele>295.9</ele>
        <time>2020-08-14T14:21:32Z</time>
      </trkpt>
      <trkpt lat="48.72377" lon="7.31097">
        <ele>294.4</ele>
        <time>2020-08-14T14:21:35Z</time>
      </trkpt>
      <trkpt lat="48.72395" lon="7.31109">
        <ele>292.4</ele>
        <time>2020-08-14T14:21:38Z</time>
      </trkpt>
      <trkpt lat="48.72414" lon="7.3112">
        <ele>291.3</ele>
        <time>2020-08-14T14:21:41Z</time>
      </trkpt>
      <trkpt lat="48.72429" lon="7.3113">
        <ele>291.6</ele>
        <time>2020-08-14T14:21:43Z</time>
      </trkpt>
      <trkpt lat="48.72449" lon="7.31146">
        <ele>292.2</ele>
        <time>2020-08-14T14:21:46Z</time>
      </trkpt>
      <trkpt lat="48.72462" lon="7.31156">
        <ele>293.4</ele>
        <time>2020-08-14T14:21:48Z</time>
      </trkpt>
      <trkpt lat="48.72476" lon="7.31167">
        <ele>294.4</ele>
        <time>2020-08-14T14:21:50Z</time>
      </trkpt>
      <trkpt lat="48.725" lon="7.31184">
        <ele>295.8</ele>
        <time>2020-08-14T14:21:53Z</time>
      </trkpt>
      <trkpt lat="48.72514" lon="7.31195">
        <ele>297.2</ele>
        <time>2020-08-14T14:21:55Z</time>
      </trkpt>
      <trkpt lat="48.72529" lon="7.31207">
        <ele>297.9</ele>
        <time>2020-08-14T14:21:57Z</time>
      </trkpt>
      <trkpt lat="48.72543" lon="7.3122">
        <ele>298.7</ele>
        <time>2020-08-14T14:21:59Z</time>
      </trkpt>
      <trkpt lat="48.72556" lon="7.31234">
        <ele>299.1</ele>
        <time>2020-08-14T14:22:01Z</time>
      </trkpt>
      <trkpt lat="48.72569" lon="7.31247">
        <ele>299.7</ele>
        <time>2020-08-14T14:22:03Z</time>
      </trkpt>
      <trkpt lat="48.72588" lon="7.31263">
        <ele>300.3</ele>
        <time>2020-08-14T14:22:06Z</time>
      </trkpt>
      <trkpt lat="48.72601" lon="7.31274">
        <ele>300.7</ele>
        <time>2020-08-14T14:22:08Z</time>
      </trkpt>
      <trkpt lat="48.72614" lon="7.31284">
        <ele>301.7</ele>
        <time>2020-08-14T14:22:10Z</time>
      </trkpt>
      <trkpt lat="48.72628" lon="7.31294">
        <ele>302.3</ele>
        <time>2020-08-14T14:22:12Z</time>
      </trkpt>
      <trkpt lat="48.72642" lon="7.31303">
        <ele>302.9</ele>
        <time>2020-08-14T14:22:14Z</time>
      </trkpt>
      <trkpt lat="48.72663" lon="7.31317">
        <ele>303.2</ele>
        <time>2020-08-14T14:22:17Z</time>
      </trkpt>
      <trkpt lat="48.72677" lon="7.31327">
        <ele>303.1</ele>
        <time>2020-08-14T14:22:19Z</time>
      </trkpt>
      <trkpt lat="48.7269" lon="7.31335">
        <ele>303.9</ele>
        <time>2020-08-14T14:22:21Z</time>
      </trkpt>
      <trkpt lat="48.72703" lon="7.31342">
        <ele>304.5</ele>
        <time>2020-08-14T14:22:23Z</time>
      </trkpt>
      <trkpt lat="48.72717" lon="7.31349">
        <ele>305.3</ele>
        <time>2020-08-14T14:22:25Z</time>
      </trkpt>
      <trkpt lat="48.72733" lon="7.31357">
        <ele>306.3</ele>
        <time>2020-08-14T14:22:27Z</time>
      </trkpt>
      <trkpt lat="48.72746" lon="7.31358">
        <ele>306.4</ele>
        <time>2020-08-14T14:22:29Z</time>
      </trkpt>
      <trkpt lat="48.72752" lon="7.31351">
        <ele>306.5</ele>
        <time>2020-08-14T14:22:31Z</time>
      </trkpt>
      <trkpt lat="48.72754" lon="7.3134">
        <ele>306.6</ele>
        <time>2020-08-14T14:22:33Z</time>
      </trkpt>
      <trkpt lat="48.72752" lon="7.31326">
        <ele>306.6</ele>
        <time>2020-08-14T14:22:35Z</time>
      </trkpt>
      <trkpt lat="48.72747" lon="7.31311">
        <ele>306.2</ele>
        <time>2020-08-14T14:22:37Z</time>
      </trkpt>
      <trkpt lat="48.72743" lon="7.31294">
        <ele>305.8</ele>
        <time>2020-08-14T14:22:39Z</time>
      </trkpt>
      <trkpt lat="48.72737" lon="7.31278">
        <ele>305.1</ele>
        <time>2020-08-14T14:22:41Z</time>
      </trkpt>
      <trkpt lat="48.72731" lon="7.31261">
        <ele>304.9</ele>
        <time>2020-08-14T14:22:43Z</time>
      </trkpt>
      <trkpt lat="48.72727" lon="7.31243">
        <ele>304.7</ele>
        <time>2020-08-14T14:22:45Z</time>
      </trkpt>
      <trkpt lat="48.72721" lon="7.31227">
        <ele>304.9</ele>
        <time>2020-08-14T14:22:47Z</time>
      </trkpt>
      <trkpt lat="48.72715" lon="7.31209">
        <ele>305</ele>
        <time>2020-08-14T14:22:49Z</time>
      </trkpt>
      <trkpt lat="48.72709" lon="7.31192">
        <ele>305.4</ele>
        <time>2020-08-14T14:22:51Z</time>
      </trkpt>
      <trkpt lat="48.72702" lon="7.31174">
        <ele>305.8</ele>
        <time>2020-08-14T14:22:53Z</time>
      </trkpt>
      <trkpt lat="48.72697" lon="7.31157">
        <ele>305.1</ele>
        <time>2020-08-14T14:22:55Z</time>
      </trkpt>
      <trkpt lat="48.72693" lon="7.31138">
        <ele>304</ele>
        <time>2020-08-14T14:22:57Z</time>
      </trkpt>
      <trkpt lat="48.7269" lon="7.31119">
        <ele>303.5</ele>
        <time>2020-08-14T14:22:59Z</time>
      </trkpt>
      <trkpt lat="48.72685" lon="7.31101">
        <ele>303.5</ele>
        <time>2020-08-14T14:23:01Z</time>
      </trkpt>
      <trkpt lat="48.72679" lon="7.31083">
        <ele>304.1</ele>
        <time>2020-08-14T14:23:03Z</time>
      </trkpt>
      <trkpt lat="48.72673" lon="7.31067">
        <ele>304.2</ele>
        <time>2020-08-14T14:23:05Z</time>
      </trkpt>
      <trkpt lat="48.72667" lon="7.3105">
        <ele>304.2</ele>
        <time>2020-08-14T14:23:07Z</time>
      </trkpt>
      <trkpt lat="48.72662" lon="7.31033">
        <ele>304.1</ele>
        <time>2020-08-14T14:23:09Z</time>
      </trkpt>
      <trkpt lat="48.72658" lon="7.31017">
        <ele>303.5</ele>
        <time>2020-08-14T14:23:11Z</time>
      </trkpt>
      <trkpt lat="48.72653" lon="7.30999">
        <ele>303.7</ele>
        <time>2020-08-14T14:23:13Z</time>
      </trkpt>
      <trkpt lat="48.72647" lon="7.3098">
        <ele>304</ele>
        <time>2020-08-14T14:23:15Z</time>
      </trkpt>
      <trkpt lat="48.72642" lon="7.30962">
        <ele>304.3</ele>
        <time>2020-08-14T14:23:17Z</time>
      </trkpt>
      <trkpt lat="48.72632" lon="7.30937">
        <ele>305.3</ele>
        <time>2020-08-14T14:23:20Z</time>
      </trkpt>
      <trkpt lat="48.72625" lon="7.30919">
        <ele>306</ele>
        <time>2020-08-14T14:23:22Z</time>
      </trkpt>
      <trkpt lat="48.72619" lon="7.30905">
        <ele>306.3</ele>
        <time>2020-08-14T14:23:24Z</time>
      </trkpt>
      <trkpt lat="48.72611" lon="7.3089">
        <ele>306.3</ele>
        <time>2020-08-14T14:23:26Z</time>
      </trkpt>
      <trkpt lat="48.72603" lon="7.30876">
        <ele>306.8</ele>
        <time>2020-08-14T14:23:28Z</time>
      </trkpt>
      <trkpt lat="48.72595" lon="7.30862">
        <ele>307</ele>
        <time>2020-08-14T14:23:30Z</time>
      </trkpt>
      <trkpt lat="48.72583" lon="7.30842">
        <ele>307.3</ele>
        <time>2020-08-14T14:23:33Z</time>
      </trkpt>
      <trkpt lat="48.72576" lon="7.30827">
        <ele>307.1</ele>
        <time>2020-08-14T14:23:35Z</time>
      </trkpt>
      <trkpt lat="48.7257" lon="7.30811">
        <ele>307.3</ele>
        <time>2020-08-14T14:23:37Z</time>
      </trkpt>
      <trkpt lat="48.72566" lon="7.30795">
        <ele>307.2</ele>
        <time>2020-08-14T14:23:39Z</time>
      </trkpt>
      <trkpt lat="48.72562" lon="7.30777">
        <ele>306.9</ele>
        <time>2020-08-14T14:23:41Z</time>
      </trkpt>
      <trkpt lat="48.7256" lon="7.30758">
        <ele>307.8</ele>
        <time>2020-08-14T14:23:43Z</time>
      </trkpt>
      <trkpt lat="48.72559" lon="7.3074">
        <ele>308.2</ele>
        <time>2020-08-14T14:23:45Z</time>
      </trkpt>
      <trkpt lat="48.7256" lon="7.30722">
        <ele>307.7</ele>
        <time>2020-08-14T14:23:47Z</time>
      </trkpt>
      <trkpt lat="48.72562" lon="7.30704">
        <ele>308.8</ele>
        <time>2020-08-14T14:23:49Z</time>
      </trkpt>
      <trkpt lat="48.72565" lon="7.30686">
        <ele>309.2</ele>
        <time>2020-08-14T14:23:51Z</time>
      </trkpt>
      <trkpt lat="48.72569" lon="7.30668">
        <ele>309.9</ele>
        <time>2020-08-14T14:23:53Z</time>
      </trkpt>
      <trkpt lat="48.72575" lon="7.3065">
        <ele>310.4</ele>
        <time>2020-08-14T14:23:55Z</time>
      </trkpt>
      <trkpt lat="48.72581" lon="7.30632">
        <ele>310</ele>
        <time>2020-08-14T14:23:57Z</time>
      </trkpt>
      <trkpt lat="48.72588" lon="7.30614">
        <ele>310</ele>
        <time>2020-08-14T14:23:59Z</time>
      </trkpt>
      <trkpt lat="48.72596" lon="7.30596">
        <ele>310.2</ele>
        <time>2020-08-14T14:24:01Z</time>
      </trkpt>
      <trkpt lat="48.72602" lon="7.30577">
        <ele>311</ele>
        <time>2020-08-14T14:24:03Z</time>
      </trkpt>
      <trkpt lat="48.7261" lon="7.30559">
        <ele>311.7</ele>
        <time>2020-08-14T14:24:05Z</time>
      </trkpt>
      <trkpt lat="48.72619" lon="7.30542">
        <ele>312.6</ele>
        <time>2020-08-14T14:24:07Z</time>
      </trkpt>
      <trkpt lat="48.72628" lon="7.30526">
        <ele>314.1</ele>
        <time>2020-08-14T14:24:09Z</time>
      </trkpt>
      <trkpt lat="48.72639" lon="7.30511">
        <ele>316</ele>
        <time>2020-08-14T14:24:11Z</time>
      </trkpt>
      <trkpt lat="48.7265" lon="7.30497">
        <ele>304.1</ele>
        <time>2020-08-14T14:24:13Z</time>
      </trkpt>
      <trkpt lat="48.72662" lon="7.30483">
        <ele>304</ele>
        <time>2020-08-14T14:24:15Z</time>
      </trkpt>
      <trkpt lat="48.72673" lon="7.30472">
        <ele>303.7</ele>
        <time>2020-08-14T14:24:17Z</time>
      </trkpt>
      <trkpt lat="48.72687" lon="7.30465">
        <ele>303.9</ele>
        <time>2020-08-14T14:24:19Z</time>
      </trkpt>
      <trkpt lat="48.72701" lon="7.30463">
        <ele>304.6</ele>
        <time>2020-08-14T14:24:21Z</time>
      </trkpt>
      <trkpt lat="48.72715" lon="7.30465">
        <ele>305.9</ele>
        <time>2020-08-14T14:24:23Z</time>
      </trkpt>
      <trkpt lat="48.72728" lon="7.30468">
        <ele>306.5</ele>
        <time>2020-08-14T14:24:25Z</time>
      </trkpt>
      <trkpt lat="48.72741" lon="7.30475">
        <ele>307.4</ele>
        <time>2020-08-14T14:24:27Z</time>
      </trkpt>
      <trkpt lat="48.72754" lon="7.30483">
        <ele>308.4</ele>
        <time>2020-08-14T14:24:29Z</time>
      </trkpt>
      <trkpt lat="48.72766" lon="7.30493">
        <ele>309.5</ele>
        <time>2020-08-14T14:24:31Z</time>
      </trkpt>
      <trkpt lat="48.72776" lon="7.30503">
        <ele>310.5</ele>
        <time>2020-08-14T14:24:33Z</time>
      </trkpt>
      <trkpt lat="48.72787" lon="7.30516">
        <ele>312.1</ele>
        <time>2020-08-14T14:24:35Z</time>
      </trkpt>
      <trkpt lat="48.72797" lon="7.30528">
        <ele>313</ele>
        <time>2020-08-14T14:24:37Z</time>
      </trkpt>
      <trkpt lat="48.72806" lon="7.30541">
        <ele>312.5</ele>
        <time>2020-08-14T14:24:39Z</time>
      </trkpt>
      <trkpt lat="48.72816" lon="7.30555">
        <ele>312.5</ele>
        <time>2020-08-14T14:24:41Z</time>
      </trkpt>
      <trkpt lat="48.72828" lon="7.30568">
        <ele>313</ele>
        <time>2020-08-14T14:24:43Z</time>
      </trkpt>
      <trkpt lat="48.72836" lon="7.30582">
        <ele>312.4</ele>
        <time>2020-08-14T14:24:45Z</time>
      </trkpt>
      <trkpt lat="48.72846" lon="7.30597">
        <ele>311.7</ele>
        <time>2020-08-14T14:24:47Z</time>
      </trkpt>
      <trkpt lat="48.72857" lon="7.30613">
        <ele>298.4</ele>
        <time>2020-08-14T14:24:49Z</time>
      </trkpt>
      <trkpt lat="48.72872" lon="7.30637">
        <ele>297.7</ele>
        <time>2020-08-14T14:24:52Z</time>
      </trkpt>
      <trkpt lat="48.72882" lon="7.30651">
        <ele>299</ele>
        <time>2020-08-14T14:24:54Z</time>
      </trkpt>
      <trkpt lat="48.72895" lon="7.30672">
        <ele>301.3</ele>
        <time>2020-08-14T14:24:57Z</time>
      </trkpt>
      <trkpt lat="48.72907" lon="7.30688">
        <ele>305.1</ele>
        <time>2020-08-14T14:24:59Z</time>
      </trkpt>
      <trkpt lat="48.72918" lon="7.30703">
        <ele>307.6</ele>
        <time>2020-08-14T14:25:01Z</time>
      </trkpt>
      <trkpt lat="48.72927" lon="7.30718">
        <ele>309.6</ele>
        <time>2020-08-14T14:25:03Z</time>
      </trkpt>
      <trkpt lat="48.72937" lon="7.3073">
        <ele>310.8</ele>
        <time>2020-08-14T14:25:05Z</time>
      </trkpt>
      <trkpt lat="48.72952" lon="7.30747">
        <ele>311.4</ele>
        <time>2020-08-14T14:25:08Z</time>
      </trkpt>
      <trkpt lat="48.72963" lon="7.3076">
        <ele>311.9</ele>
        <time>2020-08-14T14:25:10Z</time>
      </trkpt>
      <trkpt lat="48.72975" lon="7.30774">
        <ele>312.4</ele>
        <time>2020-08-14T14:25:12Z</time>
      </trkpt>
      <trkpt lat="48.72989" lon="7.30789">
        <ele>312.8</ele>
        <time>2020-08-14T14:25:14Z</time>
      </trkpt>
      <trkpt lat="48.73005" lon="7.30802">
        <ele>313.4</ele>
        <time>2020-08-14T14:25:16Z</time>
      </trkpt>
      <trkpt lat="48.73021" lon="7.30814">
        <ele>313.9</ele>
        <time>2020-08-14T14:25:18Z</time>
      </trkpt>
      <trkpt lat="48.73045" lon="7.30827">
        <ele>314</ele>
        <time>2020-08-14T14:25:21Z</time>
      </trkpt>
      <trkpt lat="48.7306" lon="7.30833">
        <ele>314.1</ele>
        <time>2020-08-14T14:25:23Z</time>
      </trkpt>
      <trkpt lat="48.73083" lon="7.30843">
        <ele>313.7</ele>
        <time>2020-08-14T14:25:26Z</time>
      </trkpt>
      <trkpt lat="48.73096" lon="7.30846">
        <ele>313.4</ele>
        <time>2020-08-14T14:25:28Z</time>
      </trkpt>
      <trkpt lat="48.73108" lon="7.30841">
        <ele>313.4</ele>
        <time>2020-08-14T14:25:30Z</time>
      </trkpt>
      <trkpt lat="48.73114" lon="7.30828">
        <ele>313.1</ele>
        <time>2020-08-14T14:25:32Z</time>
      </trkpt>
      <trkpt lat="48.73116" lon="7.30812">
        <ele>313.2</ele>
        <time>2020-08-14T14:25:34Z</time>
      </trkpt>
      <trkpt lat="48.73115" lon="7.30796">
        <ele>313.1</ele>
        <time>2020-08-14T14:25:36Z</time>
      </trkpt>
      <trkpt lat="48.73113" lon="7.30779">
        <ele>313.2</ele>
        <time>2020-08-14T14:25:38Z</time>
      </trkpt>
      <trkpt lat="48.73109" lon="7.30755">
        <ele>313.4</ele>
        <time>2020-08-14T14:25:41Z</time>
      </trkpt>
      <trkpt lat="48.73106" lon="7.30738">
        <ele>314.1</ele>
        <time>2020-08-14T14:25:43Z</time>
      </trkpt>
      <trkpt lat="48.73104" lon="7.30722">
        <ele>314.3</ele>
        <time>2020-08-14T14:25:45Z</time>
      </trkpt>
      <trkpt lat="48.73101" lon="7.30698">
        <ele>314.7</ele>
        <time>2020-08-14T14:25:48Z</time>
      </trkpt>
      <trkpt lat="48.73099" lon="7.30683">
        <ele>314.9</ele>
        <time>2020-08-14T14:25:50Z</time>
      </trkpt>
      <trkpt lat="48.73098" lon="7.30665">
        <ele>314.7</ele>
        <time>2020-08-14T14:25:52Z</time>
      </trkpt>
      <trkpt lat="48.73096" lon="7.3065">
        <ele>314</ele>
        <time>2020-08-14T14:25:54Z</time>
      </trkpt>
      <trkpt lat="48.73093" lon="7.30634">
        <ele>314.8</ele>
        <time>2020-08-14T14:25:56Z</time>
      </trkpt>
      <trkpt lat="48.7309" lon="7.30618">
        <ele>314.9</ele>
        <time>2020-08-14T14:25:58Z</time>
      </trkpt>
      <trkpt lat="48.73088" lon="7.30604">
        <ele>315.6</ele>
        <time>2020-08-14T14:26:00Z</time>
      </trkpt>
      <trkpt lat="48.73088" lon="7.30587">
        <ele>316</ele>
        <time>2020-08-14T14:26:02Z</time>
      </trkpt>
      <trkpt lat="48.73088" lon="7.30574">
        <ele>314.9</ele>
        <time>2020-08-14T14:26:04Z</time>
      </trkpt>
      <trkpt lat="48.73088" lon="7.30567">
        <ele>314.6</ele>
        <time>2020-08-14T14:26:05Z</time>
      </trkpt>
      <trkpt lat="48.73086" lon="7.3056">
        <ele>314.5</ele>
        <time>2020-08-14T14:26:06Z</time>
      </trkpt>
      <trkpt lat="48.73082" lon="7.30535">
        <ele>314.6</ele>
        <time>2020-08-14T14:26:09Z</time>
      </trkpt>
      <trkpt lat="48.73079" lon="7.30517">
        <ele>314.4</ele>
        <time>2020-08-14T14:26:11Z</time>
      </trkpt>
      <trkpt lat="48.73075" lon="7.30502">
        <ele>314</ele>
        <time>2020-08-14T14:26:13Z</time>
      </trkpt>
      <trkpt lat="48.73072" lon="7.30488">
        <ele>313.7</ele>
        <time>2020-08-14T14:26:15Z</time>
      </trkpt>
      <trkpt lat="48.7307" lon="7.30472">
        <ele>314.2</ele>
        <time>2020-08-14T14:26:17Z</time>
      </trkpt>
      <trkpt lat="48.73068" lon="7.30457">
        <ele>314.6</ele>
        <time>2020-08-14T14:26:19Z</time>
      </trkpt>
      <trkpt lat="48.73066" lon="7.30442">
        <ele>315.3</ele>
        <time>2020-08-14T14:26:21Z</time>
      </trkpt>
      <trkpt lat="48.73064" lon="7.30426">
        <ele>315.8</ele>
        <time>2020-08-14T14:26:23Z</time>
      </trkpt>
      <trkpt lat="48.73063" lon="7.30411">
        <ele>316.1</ele>
        <time>2020-08-14T14:26:25Z</time>
      </trkpt>
      <trkpt lat="48.73061" lon="7.30392">
        <ele>299.9</ele>
        <time>2020-08-14T14:26:28Z</time>
      </trkpt>
      <trkpt lat="48.7306" lon="7.30377">
        <ele>300.5</ele>
        <time>2020-08-14T14:26:30Z</time>
      </trkpt>
      <trkpt lat="48.73058" lon="7.30363">
        <ele>302.5</ele>
        <time>2020-08-14T14:26:32Z</time>
      </trkpt>
      <trkpt lat="48.7306" lon="7.30348">
        <ele>303.7</ele>
        <time>2020-08-14T14:26:34Z</time>
      </trkpt>
      <trkpt lat="48.7306" lon="7.30328">
        <ele>307.4</ele>
        <time>2020-08-14T14:26:37Z</time>
      </trkpt>
      <trkpt lat="48.7306" lon="7.30312">
        <ele>310.7</ele>
        <time>2020-08-14T14:26:39Z</time>
      </trkpt>
      <trkpt lat="48.7306" lon="7.30297">
        <ele>313.9</ele>
        <time>2020-08-14T14:26:41Z</time>
      </trkpt>
      <trkpt lat="48.7306" lon="7.30273">
        <ele>316.5</ele>
        <time>2020-08-14T14:26:44Z</time>
      </trkpt>
      <trkpt lat="48.73061" lon="7.30257">
        <ele>319.2</ele>
        <time>2020-08-14T14:26:46Z</time>
      </trkpt>
      <trkpt lat="48.73062" lon="7.30242">
        <ele>321.7</ele>
        <time>2020-08-14T14:26:48Z</time>
      </trkpt>
      <trkpt lat="48.73066" lon="7.30225">
        <ele>323.2</ele>
        <time>2020-08-14T14:26:50Z</time>
      </trkpt>
      <trkpt lat="48.73072" lon="7.30212">
        <ele>324.2</ele>
        <time>2020-08-14T14:26:52Z</time>
      </trkpt>
      <trkpt lat="48.73081" lon="7.30203">
        <ele>324.3</ele>
        <time>2020-08-14T14:26:54Z</time>
      </trkpt>
      <trkpt lat="48.73091" lon="7.30196">
        <ele>324</ele>
        <time>2020-08-14T14:26:56Z</time>
      </trkpt>
      <trkpt lat="48.73105" lon="7.3019">
        <ele>324.7</ele>
        <time>2020-08-14T14:26:59Z</time>
      </trkpt>
      <trkpt lat="48.73117" lon="7.3019">
        <ele>324.3</ele>
        <time>2020-08-14T14:27:01Z</time>
      </trkpt>
      <trkpt lat="48.73128" lon="7.3019">
        <ele>323.4</ele>
        <time>2020-08-14T14:27:03Z</time>
      </trkpt>
      <trkpt lat="48.73139" lon="7.30191">
        <ele>323.4</ele>
        <time>2020-08-14T14:27:05Z</time>
      </trkpt>
      <trkpt lat="48.7315" lon="7.30196">
        <ele>323.1</ele>
        <time>2020-08-14T14:27:07Z</time>
      </trkpt>
      <trkpt lat="48.73161" lon="7.30201">
        <ele>323.8</ele>
        <time>2020-08-14T14:27:09Z</time>
      </trkpt>
      <trkpt lat="48.73176" lon="7.30208">
        <ele>323.6</ele>
        <time>2020-08-14T14:27:12Z</time>
      </trkpt>
      <trkpt lat="48.73187" lon="7.30216">
        <ele>323.3</ele>
        <time>2020-08-14T14:27:14Z</time>
      </trkpt>
      <trkpt lat="48.73206" lon="7.30225">
        <ele>324.7</ele>
        <time>2020-08-14T14:27:17Z</time>
      </trkpt>
      <trkpt lat="48.73217" lon="7.30231">
        <ele>325</ele>
        <time>2020-08-14T14:27:19Z</time>
      </trkpt>
      <trkpt lat="48.73238" lon="7.30248">
        <ele>324.5</ele>
        <time>2020-08-14T14:27:22Z</time>
      </trkpt>
      <trkpt lat="48.73258" lon="7.3026">
        <ele>324.9</ele>
        <time>2020-08-14T14:27:25Z</time>
      </trkpt>
      <trkpt lat="48.73272" lon="7.30269">
        <ele>325.3</ele>
        <time>2020-08-14T14:27:27Z</time>
      </trkpt>
      <trkpt lat="48.73284" lon="7.30276">
        <ele>326.2</ele>
        <time>2020-08-14T14:27:29Z</time>
      </trkpt>
      <trkpt lat="48.73304" lon="7.30284">
        <ele>327.7</ele>
        <time>2020-08-14T14:27:32Z</time>
      </trkpt>
      <trkpt lat="48.73319" lon="7.3029">
        <ele>328.5</ele>
        <time>2020-08-14T14:27:34Z</time>
      </trkpt>
      <trkpt lat="48.73339" lon="7.30298">
        <ele>329.8</ele>
        <time>2020-08-14T14:27:37Z</time>
      </trkpt>
      <trkpt lat="48.73353" lon="7.30303">
        <ele>330.8</ele>
        <time>2020-08-14T14:27:39Z</time>
      </trkpt>
      <trkpt lat="48.73375" lon="7.30309">
        <ele>332.6</ele>
        <time>2020-08-14T14:27:42Z</time>
      </trkpt>
      <trkpt lat="48.7339" lon="7.30313">
        <ele>333.2</ele>
        <time>2020-08-14T14:27:44Z</time>
      </trkpt>
      <trkpt lat="48.73404" lon="7.30318">
        <ele>332.2</ele>
        <time>2020-08-14T14:27:46Z</time>
      </trkpt>
      <trkpt lat="48.73427" lon="7.30323">
        <ele>317.1</ele>
        <time>2020-08-14T14:27:49Z</time>
      </trkpt>
      <trkpt lat="48.73441" lon="7.30326">
        <ele>316.8</ele>
        <time>2020-08-14T14:27:51Z</time>
      </trkpt>
      <trkpt lat="48.73456" lon="7.30326">
        <ele>317</ele>
        <time>2020-08-14T14:27:53Z</time>
      </trkpt>
      <trkpt lat="48.7347" lon="7.30322">
        <ele>318.9</ele>
        <time>2020-08-14T14:27:55Z</time>
      </trkpt>
      <trkpt lat="48.73484" lon="7.3032">
        <ele>320.4</ele>
        <time>2020-08-14T14:27:57Z</time>
      </trkpt>
      <trkpt lat="48.73499" lon="7.30316">
        <ele>320.9</ele>
        <time>2020-08-14T14:27:59Z</time>
      </trkpt>
      <trkpt lat="48.73513" lon="7.30312">
        <ele>321.2</ele>
        <time>2020-08-14T14:28:01Z</time>
      </trkpt>
      <trkpt lat="48.73522" lon="7.30301">
        <ele>306.4</ele>
        <time>2020-08-14T14:28:03Z</time>
      </trkpt>
      <trkpt lat="48.73526" lon="7.30284">
        <ele>308.4</ele>
        <time>2020-08-14T14:28:05Z</time>
      </trkpt>
      <trkpt lat="48.73528" lon="7.30266">
        <ele>309.8</ele>
        <time>2020-08-14T14:28:07Z</time>
      </trkpt>
      <trkpt lat="48.73529" lon="7.30247">
        <ele>312.2</ele>
        <time>2020-08-14T14:28:09Z</time>
      </trkpt>
      <trkpt lat="48.73529" lon="7.30225">
        <ele>314</ele>
        <time>2020-08-14T14:28:11Z</time>
      </trkpt>
      <trkpt lat="48.73527" lon="7.30201">
        <ele>317.2</ele>
        <time>2020-08-14T14:28:13Z</time>
      </trkpt>
      <trkpt lat="48.73528" lon="7.30176">
        <ele>320.7</ele>
        <time>2020-08-14T14:28:15Z</time>
      </trkpt>
      <trkpt lat="48.73532" lon="7.30153">
        <ele>316.9</ele>
        <time>2020-08-14T14:28:17Z</time>
      </trkpt>
      <trkpt lat="48.7354" lon="7.30134">
        <ele>317.7</ele>
        <time>2020-08-14T14:28:19Z</time>
      </trkpt>
      <trkpt lat="48.73553" lon="7.30107">
        <ele>315.9</ele>
        <time>2020-08-14T14:28:22Z</time>
      </trkpt>
      <trkpt lat="48.73566" lon="7.30081">
        <ele>317.3</ele>
        <time>2020-08-14T14:28:25Z</time>
      </trkpt>
      <trkpt lat="48.73574" lon="7.30064">
        <ele>319.4</ele>
        <time>2020-08-14T14:28:27Z</time>
      </trkpt>
      <trkpt lat="48.73576" lon="7.30044">
        <ele>322.9</ele>
        <time>2020-08-14T14:28:29Z</time>
      </trkpt>
      <trkpt lat="48.73573" lon="7.30027">
        <ele>326</ele>
        <time>2020-08-14T14:28:31Z</time>
      </trkpt>
      <trkpt lat="48.73568" lon="7.30012">
        <ele>327</ele>
        <time>2020-08-14T14:28:33Z</time>
      </trkpt>
      <trkpt lat="48.73554" lon="7.29989">
        <ele>329.1</ele>
        <time>2020-08-14T14:28:36Z</time>
      </trkpt>
      <trkpt lat="48.73544" lon="7.29974">
        <ele>329.5</ele>
        <time>2020-08-14T14:28:38Z</time>
      </trkpt>
      <trkpt lat="48.73529" lon="7.29958">
        <ele>329.8</ele>
        <time>2020-08-14T14:28:41Z</time>
      </trkpt>
      <trkpt lat="48.73517" lon="7.29947">
        <ele>330</ele>
        <time>2020-08-14T14:28:43Z</time>
      </trkpt>
      <trkpt lat="48.73505" lon="7.29935">
        <ele>329.9</ele>
        <time>2020-08-14T14:28:45Z</time>
      </trkpt>
      <trkpt lat="48.73493" lon="7.29925">
        <ele>329.4</ele>
        <time>2020-08-14T14:28:47Z</time>
      </trkpt>
      <trkpt lat="48.7348" lon="7.29915">
        <ele>329.1</ele>
        <time>2020-08-14T14:28:49Z</time>
      </trkpt>
      <trkpt lat="48.7346" lon="7.29897">
        <ele>328.6</ele>
        <time>2020-08-14T14:28:52Z</time>
      </trkpt>
      <trkpt lat="48.73443" lon="7.29876">
        <ele>328.3</ele>
        <time>2020-08-14T14:28:55Z</time>
      </trkpt>
      <trkpt lat="48.73431" lon="7.29865">
        <ele>328.1</ele>
        <time>2020-08-14T14:28:57Z</time>
      </trkpt>
      <trkpt lat="48.7342" lon="7.29852">
        <ele>328.1</ele>
        <time>2020-08-14T14:28:59Z</time>
      </trkpt>
      <trkpt lat="48.73409" lon="7.29838">
        <ele>328.1</ele>
        <time>2020-08-14T14:29:01Z</time>
      </trkpt>
      <trkpt lat="48.73398" lon="7.29825">
        <ele>327.8</ele>
        <time>2020-08-14T14:29:03Z</time>
      </trkpt>
      <trkpt lat="48.73384" lon="7.29801">
        <ele>327.8</ele>
        <time>2020-08-14T14:29:06Z</time>
      </trkpt>
      <trkpt lat="48.7337" lon="7.29779">
        <ele>328.9</ele>
        <time>2020-08-14T14:29:09Z</time>
      </trkpt>
      <trkpt lat="48.73361" lon="7.29761">
        <ele>328.8</ele>
        <time>2020-08-14T14:29:11Z</time>
      </trkpt>
      <trkpt lat="48.73353" lon="7.29744">
        <ele>328.3</ele>
        <time>2020-08-14T14:29:13Z</time>
      </trkpt>
      <trkpt lat="48.73345" lon="7.29728">
        <ele>328.9</ele>
        <time>2020-08-14T14:29:15Z</time>
      </trkpt>
      <trkpt lat="48.73338" lon="7.29708">
        <ele>328</ele>
        <time>2020-08-14T14:29:17Z</time>
      </trkpt>
      <trkpt lat="48.73332" lon="7.29688">
        <ele>327.6</ele>
        <time>2020-08-14T14:29:19Z</time>
      </trkpt>
      <trkpt lat="48.73325" lon="7.29668">
        <ele>327.5</ele>
        <time>2020-08-14T14:29:21Z</time>
      </trkpt>
      <trkpt lat="48.73319" lon="7.29652">
        <ele>326.7</ele>
        <time>2020-08-14T14:29:23Z</time>
      </trkpt>
      <trkpt lat="48.73313" lon="7.29635">
        <ele>326.1</ele>
        <time>2020-08-14T14:29:25Z</time>
      </trkpt>
      <trkpt lat="48.73306" lon="7.29617">
        <ele>326.1</ele>
        <time>2020-08-14T14:29:27Z</time>
      </trkpt>
      <trkpt lat="48.73297" lon="7.29598">
        <ele>325.8</ele>
        <time>2020-08-14T14:29:29Z</time>
      </trkpt>
      <trkpt lat="48.7329" lon="7.2958">
        <ele>326.4</ele>
        <time>2020-08-14T14:29:31Z</time>
      </trkpt>
      <trkpt lat="48.73283" lon="7.29563">
        <ele>326.5</ele>
        <time>2020-08-14T14:29:33Z</time>
      </trkpt>
      <trkpt lat="48.73277" lon="7.29545">
        <ele>326.6</ele>
        <time>2020-08-14T14:29:35Z</time>
      </trkpt>
      <trkpt lat="48.7327" lon="7.29528">
        <ele>326.8</ele>
        <time>2020-08-14T14:29:37Z</time>
      </trkpt>
      <trkpt lat="48.73263" lon="7.29511">
        <ele>326.5</ele>
        <time>2020-08-14T14:29:39Z</time>
      </trkpt>
      <trkpt lat="48.73255" lon="7.29494">
        <ele>326.3</ele>
        <time>2020-08-14T14:29:41Z</time>
      </trkpt>
      <trkpt lat="48.73247" lon="7.29477">
        <ele>325.4</ele>
        <time>2020-08-14T14:29:43Z</time>
      </trkpt>
      <trkpt lat="48.7324" lon="7.29462">
        <ele>325.8</ele>
        <time>2020-08-14T14:29:45Z</time>
      </trkpt>
      <trkpt lat="48.73235" lon="7.29442">
        <ele>325.4</ele>
        <time>2020-08-14T14:29:47Z</time>
      </trkpt>
      <trkpt lat="48.73232" lon="7.29422">
        <ele>325.9</ele>
        <time>2020-08-14T14:29:49Z</time>
      </trkpt>
      <trkpt lat="48.7323" lon="7.29406">
        <ele>324.3</ele>
        <time>2020-08-14T14:29:51Z</time>
      </trkpt>
      <trkpt lat="48.73227" lon="7.29386">
        <ele>322.7</ele>
        <time>2020-08-14T14:29:53Z</time>
      </trkpt>
      <trkpt lat="48.73224" lon="7.2937">
        <ele>322.1</ele>
        <time>2020-08-14T14:29:55Z</time>
      </trkpt>
      <trkpt lat="48.73222" lon="7.29355">
        <ele>321.1</ele>
        <time>2020-08-14T14:29:57Z</time>
      </trkpt>
      <trkpt lat="48.73221" lon="7.29343">
        <ele>319.2</ele>
        <time>2020-08-14T14:29:59Z</time>
      </trkpt>
      <trkpt lat="48.7322" lon="7.29327">
        <ele>316.2</ele>
        <time>2020-08-14T14:30:01Z</time>
      </trkpt>
      <trkpt lat="48.73218" lon="7.2931">
        <ele>313.7</ele>
        <time>2020-08-14T14:30:03Z</time>
      </trkpt>
      <trkpt lat="48.73216" lon="7.29291">
        <ele>310.8</ele>
        <time>2020-08-14T14:30:05Z</time>
      </trkpt>
      <trkpt lat="48.73213" lon="7.29274">
        <ele>308.5</ele>
        <time>2020-08-14T14:30:07Z</time>
      </trkpt>
      <trkpt lat="48.73212" lon="7.29256">
        <ele>306.1</ele>
        <time>2020-08-14T14:30:09Z</time>
      </trkpt>
      <trkpt lat="48.73211" lon="7.29238">
        <ele>304</ele>
        <time>2020-08-14T14:30:11Z</time>
      </trkpt>
      <trkpt lat="48.7321" lon="7.2922">
        <ele>302.2</ele>
        <time>2020-08-14T14:30:13Z</time>
      </trkpt>
      <trkpt lat="48.73208" lon="7.29201">
        <ele>300</ele>
        <time>2020-08-14T14:30:15Z</time>
      </trkpt>
      <trkpt lat="48.73208" lon="7.29186">
        <ele>298</ele>
        <time>2020-08-14T14:30:17Z</time>
      </trkpt>
      <trkpt lat="48.73207" lon="7.29171">
        <ele>296.3</ele>
        <time>2020-08-14T14:30:19Z</time>
      </trkpt>
      <trkpt lat="48.73207" lon="7.29156">
        <ele>294.6</ele>
        <time>2020-08-14T14:30:21Z</time>
      </trkpt>
      <trkpt lat="48.73207" lon="7.29143">
        <ele>293.1</ele>
        <time>2020-08-14T14:30:23Z</time>
      </trkpt>
      <trkpt lat="48.73209" lon="7.29131">
        <ele>291.1</ele>
        <time>2020-08-14T14:30:25Z</time>
      </trkpt>
      <trkpt lat="48.73211" lon="7.29118">
        <ele>288.9</ele>
        <time>2020-08-14T14:30:27Z</time>
      </trkpt>
      <trkpt lat="48.73211" lon="7.29107">
        <ele>287.2</ele>
        <time>2020-08-14T14:30:29Z</time>
      </trkpt>
      <trkpt lat="48.73211" lon="7.291">
        <ele>285.7</ele>
        <time>2020-08-14T14:30:31Z</time>
      </trkpt>
      <trkpt lat="48.73213" lon="7.29092">
        <ele>284.7</ele>
        <time>2020-08-14T14:30:33Z</time>
      </trkpt>
      <trkpt lat="48.73214" lon="7.29084">
        <ele>283.5</ele>
        <time>2020-08-14T14:30:35Z</time>
      </trkpt>
      <trkpt lat="48.73215" lon="7.29071">
        <ele>282.1</ele>
        <time>2020-08-14T14:30:37Z</time>
      </trkpt>
      <trkpt lat="48.73218" lon="7.29059">
        <ele>280.1</ele>
        <time>2020-08-14T14:30:39Z</time>
      </trkpt>
      <trkpt lat="48.7322" lon="7.29048">
        <ele>278.8</ele>
        <time>2020-08-14T14:30:41Z</time>
      </trkpt>
      <trkpt lat="48.7322" lon="7.29038">
        <ele>277.1</ele>
        <time>2020-08-14T14:30:44Z</time>
      </trkpt>
      <trkpt lat="48.73215" lon="7.29043">
        <ele>274.5</ele>
        <time>2020-08-14T14:30:49Z</time>
      </trkpt>
      <trkpt lat="48.73211" lon="7.29049">
        <ele>272.6</ele>
        <time>2020-08-14T14:30:53Z</time>
      </trkpt>
      <trkpt lat="48.73207" lon="7.29054">
        <ele>270.4</ele>
        <time>2020-08-14T14:30:57Z</time>
      </trkpt>
      <trkpt lat="48.73203" lon="7.29058">
        <ele>269</ele>
        <time>2020-08-14T14:31:00Z</time>
      </trkpt>
      <trkpt lat="48.73199" lon="7.29057">
        <ele>267.7</ele>
        <time>2020-08-14T14:31:05Z</time>
      </trkpt>
      <trkpt lat="48.73198" lon="7.29051">
        <ele>267.6</ele>
        <time>2020-08-14T14:31:07Z</time>
      </trkpt>
      <trkpt lat="48.73199" lon="7.29043">
        <ele>267.7</ele>
        <time>2020-08-14T14:31:09Z</time>
      </trkpt>
      <trkpt lat="48.732" lon="7.29036">
        <ele>267.5</ele>
        <time>2020-08-14T14:31:11Z</time>
      </trkpt>
      <trkpt lat="48.73201" lon="7.29028">
        <ele>267.3</ele>
        <time>2020-08-14T14:31:13Z</time>
      </trkpt>
      <trkpt lat="48.73203" lon="7.29014">
        <ele>266.1</ele>
        <time>2020-08-14T14:31:16Z</time>
      </trkpt>
      <trkpt lat="48.73204" lon="7.29005">
        <ele>265.2</ele>
        <time>2020-08-14T14:31:18Z</time>
      </trkpt>
      <trkpt lat="48.73207" lon="7.28989">
        <ele>263.5</ele>
        <time>2020-08-14T14:31:21Z</time>
      </trkpt>
      <trkpt lat="48.73209" lon="7.28979">
        <ele>262.2</ele>
        <time>2020-08-14T14:31:23Z</time>
      </trkpt>
      <trkpt lat="48.73211" lon="7.28963">
        <ele>261.1</ele>
        <time>2020-08-14T14:31:25Z</time>
      </trkpt>
      <trkpt lat="48.73214" lon="7.28947">
        <ele>259.6</ele>
        <time>2020-08-14T14:31:27Z</time>
      </trkpt>
      <trkpt lat="48.73215" lon="7.28935">
        <ele>258</ele>
        <time>2020-08-14T14:31:29Z</time>
      </trkpt>
      <trkpt lat="48.73214" lon="7.28924">
        <ele>255.4</ele>
        <time>2020-08-14T14:31:32Z</time>
      </trkpt>
      <trkpt lat="48.73215" lon="7.28915">
        <ele>252.9</ele>
        <time>2020-08-14T14:31:35Z</time>
      </trkpt>
      <trkpt lat="48.73216" lon="7.28906">
        <ele>251.9</ele>
        <time>2020-08-14T14:31:37Z</time>
      </trkpt>
      <trkpt lat="48.73218" lon="7.28896">
        <ele>250.5</ele>
        <time>2020-08-14T14:31:39Z</time>
      </trkpt>
      <trkpt lat="48.73222" lon="7.2888">
        <ele>249.2</ele>
        <time>2020-08-14T14:31:42Z</time>
      </trkpt>
      <trkpt lat="48.73224" lon="7.28866">
        <ele>248.2</ele>
        <time>2020-08-14T14:31:44Z</time>
      </trkpt>
      <trkpt lat="48.73226" lon="7.2885">
        <ele>247.1</ele>
        <time>2020-08-14T14:31:46Z</time>
      </trkpt>
      <trkpt lat="48.73229" lon="7.28833">
        <ele>246.2</ele>
        <time>2020-08-14T14:31:48Z</time>
      </trkpt>
      <trkpt lat="48.73233" lon="7.28819">
        <ele>244.8</ele>
        <time>2020-08-14T14:31:50Z</time>
      </trkpt>
      <trkpt lat="48.73238" lon="7.28808">
        <ele>242.8</ele>
        <time>2020-08-14T14:31:52Z</time>
      </trkpt>
      <trkpt lat="48.73243" lon="7.288">
        <ele>240.7</ele>
        <time>2020-08-14T14:31:54Z</time>
      </trkpt>
      <trkpt lat="48.73249" lon="7.28797">
        <ele>238.8</ele>
        <time>2020-08-14T14:31:56Z</time>
      </trkpt>
      <trkpt lat="48.73258" lon="7.28794">
        <ele>236.5</ele>
        <time>2020-08-14T14:31:58Z</time>
      </trkpt>
      <trkpt lat="48.73277" lon="7.28791">
        <ele>233.5</ele>
        <time>2020-08-14T14:32:01Z</time>
      </trkpt>
      <trkpt lat="48.73299" lon="7.28789">
        <ele>231.9</ele>
        <time>2020-08-14T14:32:04Z</time>
      </trkpt>
      <trkpt lat="48.7331" lon="7.28786">
        <ele>231.4</ele>
        <time>2020-08-14T14:32:06Z</time>
      </trkpt>
      <trkpt lat="48.7332" lon="7.28783">
        <ele>230.9</ele>
        <time>2020-08-14T14:32:08Z</time>
      </trkpt>
      <trkpt lat="48.73328" lon="7.28782">
        <ele>230</ele>
        <time>2020-08-14T14:32:10Z</time>
      </trkpt>
      <trkpt lat="48.73334" lon="7.2878">
        <ele>229.4</ele>
        <time>2020-08-14T14:32:13Z</time>
      </trkpt>
      <trkpt lat="48.73339" lon="7.28779">
        <ele>227.9</ele>
        <time>2020-08-14T14:32:18Z</time>
      </trkpt>
      <trkpt lat="48.73342" lon="7.28773">
        <ele>228.8</ele>
        <time>2020-08-14T14:32:29Z</time>
      </trkpt>
      <trkpt lat="48.73339" lon="7.28767">
        <ele>228.2</ele>
        <time>2020-08-14T14:32:33Z</time>
      </trkpt>
      <trkpt lat="48.73334" lon="7.28763">
        <ele>227.9</ele>
        <time>2020-08-14T14:32:35Z</time>
      </trkpt>
      <trkpt lat="48.73336" lon="7.28757">
        <ele>227.6</ele>
        <time>2020-08-14T14:32:39Z</time>
      </trkpt>
      <trkpt lat="48.73342" lon="7.28756">
        <ele>226.9</ele>
        <time>2020-08-14T14:32:42Z</time>
      </trkpt>
      <trkpt lat="48.73346" lon="7.28757">
        <ele>226.7</ele>
        <time>2020-08-14T14:32:44Z</time>
      </trkpt>
    </trkseg>
  </trk>
</gpx>